sensor_id;sensor_type;location;lat;lon;timestamp;temperature;humidity
22966;DHT22;11649;48.090;9.754;2023-01-01T00:02:25;7.10;99.90
22966;DHT22;11649;48.090;9.754;2023-01-01T00:04:59;7.20;99.90
22966;DHT22;11649;48.090;9.754;2023-01-01T00:07:26;7.30;99.90
22966;DHT22;11649;48.090;9.754;2023-01-01T00:09:52;7.30;99.90
22966;DHT22;11649;48.090;9.754;2023-01-01T00:12:37;7.10;99.90
22966;DHT22;11649;48.090;9.754;2023-01-01T00:15:05;7.20;99.90
22966;DHT22;11649;48.090;9.754;2023-01-01T00:17:32;7.20;99.90
22966;DHT22;11649;48.090;9.754;2023-01-01T00:19:59;7.20;99.90
22966;DHT22;11649;48.090;9.754;2023-01-01T00:22:25;7.20;99.90
22966;DHT22;11649;48.090;9.754;2023-01-01T00:25:12;7.20;99.90
22966;DHT22;11649;48.090;9.754;2023-01-01T00:27:43;7.20;99.90
22966;DHT22;11649;48.090;9.754;2023-01-01T00:30:10;7.30;99.90
22966;DHT22;11649;48.090;9.754;2023-01-01T00:32:37;7.30;99.90
22966;DHT22;11649;48.090;9.754;2023-01-01T00:35:04;7.30;99.90
22966;DHT22;11649;48.090;9.754;2023-01-01T00:37:31;7.20;99.90
22966;DHT22;11649;48.090;9.754;2023-01-01T00:39:58;7.20;99.90
22966;DHT22;11649;48.090;9.754;2023-01-01T00:42:25;7.00;99.90
22966;DHT22;11649;48.090;9.754;2023-01-01T00:44:52;7.10;99.90
22966;DHT22;11649;48.090;9.754;2023-01-01T00:47:18;7.10;99.90
22966;DHT22;11649;48.090;9.754;2023-01-01T00:49:45;7.10;99.90
22966;DHT22;11649;48.090;9.754;2023-01-01T00:52:12;7.00;99.90
22966;DHT22;11649;48.090;9.754;2023-01-01T00:54:39;7.10;99.90
22966;DHT22;11649;48.090;9.754;2023-01-01T00:57:05;7.20;99.90
22966;DHT22;11649;48.090;9.754;2023-01-01T00:59:32;7.20;99.90
22966;DHT22;11649;48.090;9.754;2023-01-01T01:01:59;7.20;99.90
22966;DHT22;11649;48.090;9.754;2023-01-01T01:04:26;7.20;99.90
22966;DHT22;11649;48.090;9.754;2023-01-01T01:06:52;7.10;99.90
22966;DHT22;11649;48.090;9.754;2023-01-01T01:09:19;7.00;99.90
22966;DHT22;11649;48.090;9.754;2023-01-01T01:11:46;7.10;99.90
22966;DHT22;11649;48.090;9.754;2023-01-01T01:14:13;7.10;99.90
22966;DHT22;11649;48.090;9.754;2023-01-01T01:16:40;7.20;99.90
22966;DHT22;11649;48.090;9.754;2023-01-01T01:19:07;7.20;99.90
22966;DHT22;11649;48.090;9.754;2023-01-01T01:21:39;7.20;99.90
22966;DHT22;11649;48.090;9.754;2023-01-01T01:24:06;7.10;99.90
22966;DHT22;11649;48.090;9.754;2023-01-01T01:26:33;7.00;99.90
22966;DHT22;11649;48.090;9.754;2023-01-01T01:29:02;7.00;99.90
22966;DHT22;11649;48.090;9.754;2023-01-01T01:31:31;7.10;99.90
22966;DHT22;11649;48.090;9.754;2023-01-01T01:33:58;7.10;99.90
22966;DHT22;11649;48.090;9.754;2023-01-01T01:36:25;6.90;99.90
22966;DHT22;11649;48.090;9.754;2023-01-01T01:38:52;6.80;99.90
22966;DHT22;11649;48.090;9.754;2023-01-01T01:41:21;6.90;99.90
22966;DHT22;11649;48.090;9.754;2023-01-01T01:43:59;7.00;99.90
22966;DHT22;11649;48.090;9.754;2023-01-01T01:46:33;7.00;99.90
22966;DHT22;11649;48.090;9.754;2023-01-01T01:49:05;7.00;99.90
22966;DHT22;11649;48.090;9.754;2023-01-01T01:51:38;7.00;99.90
22966;DHT22;11649;48.090;9.754;2023-01-01T01:54:12;6.90;99.90
22966;DHT22;11649;48.090;9.754;2023-01-01T01:56:50;6.90;99.90
22966;DHT22;11649;48.090;9.754;2023-01-01T01:59:20;6.90;99.90
22966;DHT22;11649;48.090;9.754;2023-01-01T02:01:48;6.80;99.90
22966;DHT22;11649;48.090;9.754;2023-01-01T02:04:16;6.80;99.90
22966;DHT22;11649;48.090;9.754;2023-01-01T02:06:43;6.80;99.90
22966;DHT22;11649;48.090;9.754;2023-01-01T02:09:10;6.90;99.90
22966;DHT22;11649;48.090;9.754;2023-01-01T02:11:38;6.80;99.90
22966;DHT22;11649;48.090;9.754;2023-01-01T02:14:05;6.80;99.90
22966;DHT22;11649;48.090;9.754;2023-01-01T02:16:42;7.10;99.90
22966;DHT22;11649;48.090;9.754;2023-01-01T02:22:56;7.90;99.90
22966;DHT22;11649;48.090;9.754;2023-01-01T02:29:24;8.20;99.90
22966;DHT22;11649;48.090;9.754;2023-01-01T02:34:43;8.30;99.90
22966;DHT22;11649;48.090;9.754;2023-01-01T02:37:14;8.30;99.90
22966;DHT22;11649;48.090;9.754;2023-01-01T02:39:50;8.50;99.90
22966;DHT22;11649;48.090;9.754;2023-01-01T02:42:18;8.70;99.90
22966;DHT22;11649;48.090;9.754;2023-01-01T02:44:50;8.70;99.90
22966;DHT22;11649;48.090;9.754;2023-01-01T02:47:19;8.70;99.90
22966;DHT22;11649;48.090;9.754;2023-01-01T02:49:52;8.80;99.90
22966;DHT22;11649;48.090;9.754;2023-01-01T02:53:15;8.90;99.90
22966;DHT22;11649;48.090;9.754;2023-01-01T03:00:57;9.10;99.90
22966;DHT22;11649;48.090;9.754;2023-01-01T03:03:38;9.10;99.90
22966;DHT22;11649;48.090;9.754;2023-01-01T03:06:27;9.30;99.90
22966;DHT22;11649;48.090;9.754;2023-01-01T03:12:09;9.50;99.90
22966;DHT22;11649;48.090;9.754;2023-01-01T03:14:43;9.40;99.90
22966;DHT22;11649;48.090;9.754;2023-01-01T03:17:40;9.50;99.90
22966;DHT22;11649;48.090;9.754;2023-01-01T03:20:12;9.60;99.90
22966;DHT22;11649;48.090;9.754;2023-01-01T03:22:43;9.60;99.90
22966;DHT22;11649;48.090;9.754;2023-01-01T03:25:13;9.60;99.90
22966;DHT22;11649;48.090;9.754;2023-01-01T03:27:48;9.70;99.90
22966;DHT22;11649;48.090;9.754;2023-01-01T03:30:17;9.80;99.90
22966;DHT22;11649;48.090;9.754;2023-01-01T03:35:50;9.80;99.90
22966;DHT22;11649;48.090;9.754;2023-01-01T03:38:27;9.80;99.90
22966;DHT22;11649;48.090;9.754;2023-01-01T03:41:31;9.70;99.90
22966;DHT22;11649;48.090;9.754;2023-01-01T03:44:05;9.70;99.90
22966;DHT22;11649;48.090;9.754;2023-01-01T03:46:34;9.70;99.90
22966;DHT22;11649;48.090;9.754;2023-01-01T03:49:03;9.60;99.90
22966;DHT22;11649;48.090;9.754;2023-01-01T03:57:54;9.50;99.90
22966;DHT22;11649;48.090;9.754;2023-01-01T04:00:24;9.50;99.90
22966;DHT22;11649;48.090;9.754;2023-01-01T04:03:03;9.60;99.90
22966;DHT22;11649;48.090;9.754;2023-01-01T04:05:34;9.60;99.90
22966;DHT22;11649;48.090;9.754;2023-01-01T04:08:39;9.50;99.90
22966;DHT22;11649;48.090;9.754;2023-01-01T04:11:17;9.40;99.90
22966;DHT22;11649;48.090;9.754;2023-01-01T04:14:03;9.40;99.90
22966;DHT22;11649;48.090;9.754;2023-01-01T04:16:30;9.30;99.90
22966;DHT22;11649;48.090;9.754;2023-01-01T04:18:57;9.20;99.90
22966;DHT22;11649;48.090;9.754;2023-01-01T04:21:23;9.10;99.90
22966;DHT22;11649;48.090;9.754;2023-01-01T04:23:50;9.00;99.90
22966;DHT22;11649;48.090;9.754;2023-01-01T04:26:17;9.00;99.90
22966;DHT22;11649;48.090;9.754;2023-01-01T04:28:44;9.00;99.90
22966;DHT22;11649;48.090;9.754;2023-01-01T04:31:10;8.90;99.90
22966;DHT22;11649;48.090;9.754;2023-01-01T04:33:38;8.80;99.90
22966;DHT22;11649;48.090;9.754;2023-01-01T04:36:06;8.70;99.90
22966;DHT22;11649;48.090;9.754;2023-01-01T04:38:34;8.60;99.90
22966;DHT22;11649;48.090;9.754;2023-01-01T04:41:02;8.60;99.90
22966;DHT22;11649;48.090;9.754;2023-01-01T04:43:30;8.60;99.90
22966;DHT22;11649;48.090;9.754;2023-01-01T04:46:01;8.60;99.90
22966;DHT22;11649;48.090;9.754;2023-01-01T04:48:30;8.60;99.90
22966;DHT22;11649;48.090;9.754;2023-01-01T04:50:59;8.60;99.90
22966;DHT22;11649;48.090;9.754;2023-01-01T04:53:32;8.50;99.90
22966;DHT22;11649;48.090;9.754;2023-01-01T04:58:35;8.30;99.90
22966;DHT22;11649;48.090;9.754;2023-01-01T05:01:03;8.30;99.90
22966;DHT22;11649;48.090;9.754;2023-01-01T05:03:31;8.10;99.90
22966;DHT22;11649;48.090;9.754;2023-01-01T05:06:06;8.10;99.90
22966;DHT22;11649;48.090;9.754;2023-01-01T05:08:36;8.00;99.90
22966;DHT22;11649;48.090;9.754;2023-01-01T05:11:08;8.00;99.90
22966;DHT22;11649;48.090;9.754;2023-01-01T05:13:36;8.00;99.90
22966;DHT22;11649;48.090;9.754;2023-01-01T05:16:05;8.00;99.90
22966;DHT22;11649;48.090;9.754;2023-01-01T05:18:34;8.00;99.90
22966;DHT22;11649;48.090;9.754;2023-01-01T05:21:15;8.00;99.90
22966;DHT22;11649;48.090;9.754;2023-01-01T05:23:42;7.80;99.90
22966;DHT22;11649;48.090;9.754;2023-01-01T05:26:10;7.50;99.90
22966;DHT22;11649;48.090;9.754;2023-01-01T05:28:37;7.50;99.90
22966;DHT22;11649;48.090;9.754;2023-01-01T05:31:06;7.60;99.90
22966;DHT22;11649;48.090;9.754;2023-01-01T05:33:33;7.50;99.90
22966;DHT22;11649;48.090;9.754;2023-01-01T05:36:01;7.40;99.90
22966;DHT22;11649;48.090;9.754;2023-01-01T05:38:27;7.40;99.90
22966;DHT22;11649;48.090;9.754;2023-01-01T05:40:55;7.50;99.90
22966;DHT22;11649;48.090;9.754;2023-01-01T05:43:21;7.50;99.90
22966;DHT22;11649;48.090;9.754;2023-01-01T05:45:48;7.50;99.90
22966;DHT22;11649;48.090;9.754;2023-01-01T05:48:15;7.50;99.90
22966;DHT22;11649;48.090;9.754;2023-01-01T05:50:42;7.40;99.90
22966;DHT22;11649;48.090;9.754;2023-01-01T05:53:08;7.20;99.90
22966;DHT22;11649;48.090;9.754;2023-01-01T05:55:35;7.20;99.90
22966;DHT22;11649;48.090;9.754;2023-01-01T05:58:02;7.20;99.90
22966;DHT22;11649;48.090;9.754;2023-01-01T06:00:28;7.10;99.90
22966;DHT22;11649;48.090;9.754;2023-01-01T06:02:55;7.10;99.90
22966;DHT22;11649;48.090;9.754;2023-01-01T06:05:22;7.00;99.90
22966;DHT22;11649;48.090;9.754;2023-01-01T06:07:49;7.10;99.90
22966;DHT22;11649;48.090;9.754;2023-01-01T06:10:15;7.00;99.90
22966;DHT22;11649;48.090;9.754;2023-01-01T06:12:42;6.90;99.90
22966;DHT22;11649;48.090;9.754;2023-01-01T06:15:09;6.90;99.90
22966;DHT22;11649;48.090;9.754;2023-01-01T06:17:36;6.80;99.90
22966;DHT22;11649;48.090;9.754;2023-01-01T06:20:03;6.80;99.90
22966;DHT22;11649;48.090;9.754;2023-01-01T06:22:30;6.80;99.90
22966;DHT22;11649;48.090;9.754;2023-01-01T06:24:56;6.80;99.90
22966;DHT22;11649;48.090;9.754;2023-01-01T06:27:23;6.70;99.90
22966;DHT22;11649;48.090;9.754;2023-01-01T06:29:50;6.70;99.90
22966;DHT22;11649;48.090;9.754;2023-01-01T06:32:16;6.60;99.90
22966;DHT22;11649;48.090;9.754;2023-01-01T06:34:43;6.70;99.90
22966;DHT22;11649;48.090;9.754;2023-01-01T06:37:10;7.00;99.90
22966;DHT22;11649;48.090;9.754;2023-01-01T06:39:37;7.00;99.90
22966;DHT22;11649;48.090;9.754;2023-01-01T06:42:03;7.20;99.90
22966;DHT22;11649;48.090;9.754;2023-01-01T06:44:30;7.20;99.90
22966;DHT22;11649;48.090;9.754;2023-01-01T06:46:57;7.30;99.90
22966;DHT22;11649;48.090;9.754;2023-01-01T06:49:24;7.30;99.90
22966;DHT22;11649;48.090;9.754;2023-01-01T06:51:50;7.40;99.90
22966;DHT22;11649;48.090;9.754;2023-01-01T06:54:17;7.40;99.90
22966;DHT22;11649;48.090;9.754;2023-01-01T06:56:44;7.30;99.90
22966;DHT22;11649;48.090;9.754;2023-01-01T06:59:11;7.20;99.90
22966;DHT22;11649;48.090;9.754;2023-01-01T07:01:38;7.10;99.90
22966;DHT22;11649;48.090;9.754;2023-01-01T07:04:12;7.10;99.90
22966;DHT22;11649;48.090;9.754;2023-01-01T07:06:39;7.00;99.90
22966;DHT22;11649;48.090;9.754;2023-01-01T07:09:06;6.90;99.90
22966;DHT22;11649;48.090;9.754;2023-01-01T07:11:34;6.80;99.90
22966;DHT22;11649;48.090;9.754;2023-01-01T07:14:01;6.70;99.90
22966;DHT22;11649;48.090;9.754;2023-01-01T07:16:29;6.70;99.90
22966;DHT22;11649;48.090;9.754;2023-01-01T07:18:56;6.70;99.90
22966;DHT22;11649;48.090;9.754;2023-01-01T07:21:31;6.70;99.90
22966;DHT22;11649;48.090;9.754;2023-01-01T07:24:01;6.60;99.90
22966;DHT22;11649;48.090;9.754;2023-01-01T07:26:30;6.50;99.90
22966;DHT22;11649;48.090;9.754;2023-01-01T07:28:57;6.40;99.90
22966;DHT22;11649;48.090;9.754;2023-01-01T07:31:37;6.50;99.90
22966;DHT22;11649;48.090;9.754;2023-01-01T07:34:05;6.40;99.90
22966;DHT22;11649;48.090;9.754;2023-01-01T07:36:33;6.40;99.90
22966;DHT22;11649;48.090;9.754;2023-01-01T07:38:59;6.40;99.90
22966;DHT22;11649;48.090;9.754;2023-01-01T07:41:26;6.40;99.90
22966;DHT22;11649;48.090;9.754;2023-01-01T07:43:53;6.40;99.90
22966;DHT22;11649;48.090;9.754;2023-01-01T07:46:20;6.50;99.90
22966;DHT22;11649;48.090;9.754;2023-01-01T07:48:47;6.50;99.90
22966;DHT22;11649;48.090;9.754;2023-01-01T07:51:14;6.40;99.90
22966;DHT22;11649;48.090;9.754;2023-01-01T07:53:41;6.30;99.90
22966;DHT22;11649;48.090;9.754;2023-01-01T07:56:08;6.20;99.90
22966;DHT22;11649;48.090;9.754;2023-01-01T07:58:40;6.20;99.90
22966;DHT22;11649;48.090;9.754;2023-01-01T08:01:12;6.20;99.90
22966;DHT22;11649;48.090;9.754;2023-01-01T08:03:40;6.30;99.90
22966;DHT22;11649;48.090;9.754;2023-01-01T08:06:09;6.50;99.90
22966;DHT22;11649;48.090;9.754;2023-01-01T08:08:36;6.60;99.90
22966;DHT22;11649;48.090;9.754;2023-01-01T08:11:03;6.60;99.90
22966;DHT22;11649;48.090;9.754;2023-01-01T08:13:30;6.70;99.90
22966;DHT22;11649;48.090;9.754;2023-01-01T08:15:57;6.80;99.90
22966;DHT22;11649;48.090;9.754;2023-01-01T08:18:25;7.00;99.90
22966;DHT22;11649;48.090;9.754;2023-01-01T08:20:51;7.00;99.90
22966;DHT22;11649;48.090;9.754;2023-01-01T08:23:19;7.30;99.90
22966;DHT22;11649;48.090;9.754;2023-01-01T08:25:46;7.00;99.90
22966;DHT22;11649;48.090;9.754;2023-01-01T08:28:12;7.10;99.90
22966;DHT22;11649;48.090;9.754;2023-01-01T08:30:39;7.00;99.90
22966;DHT22;11649;48.090;9.754;2023-01-01T08:33:06;7.00;99.90
22966;DHT22;11649;48.090;9.754;2023-01-01T08:35:35;7.00;99.90
22966;DHT22;11649;48.090;9.754;2023-01-01T08:38:03;7.20;99.90
22966;DHT22;11649;48.090;9.754;2023-01-01T08:40:30;7.30;99.90
22966;DHT22;11649;48.090;9.754;2023-01-01T08:42:56;7.70;99.90
22966;DHT22;11649;48.090;9.754;2023-01-01T08:45:23;7.60;99.90
22966;DHT22;11649;48.090;9.754;2023-01-01T08:47:50;7.80;99.90
22966;DHT22;11649;48.090;9.754;2023-01-01T08:50:17;8.10;99.90
22966;DHT22;11649;48.090;9.754;2023-01-01T08:52:44;8.00;99.90
22966;DHT22;11649;48.090;9.754;2023-01-01T08:55:10;9.00;99.90
22966;DHT22;11649;48.090;9.754;2023-01-01T08:57:37;8.20;99.90
22966;DHT22;11649;48.090;9.754;2023-01-01T09:00:04;8.40;99.90
22966;DHT22;11649;48.090;9.754;2023-01-01T09:02:34;8.60;99.90
22966;DHT22;11649;48.090;9.754;2023-01-01T09:05:01;8.60;99.90
22966;DHT22;11649;48.090;9.754;2023-01-01T09:07:28;8.90;99.90
22966;DHT22;11649;48.090;9.754;2023-01-01T09:09:55;9.60;99.90
22966;DHT22;11649;48.090;9.754;2023-01-01T09:12:21;10.20;99.90
22966;DHT22;11649;48.090;9.754;2023-01-01T09:14:48;10.90;99.90
22966;DHT22;11649;48.090;9.754;2023-01-01T09:17:15;11.40;99.90
22966;DHT22;11649;48.090;9.754;2023-01-01T09:19:42;12.10;99.90
22966;DHT22;11649;48.090;9.754;2023-01-01T09:22:09;12.20;99.90
22966;DHT22;11649;48.090;9.754;2023-01-01T09:24:37;12.70;99.90
22966;DHT22;11649;48.090;9.754;2023-01-01T09:27:04;12.90;99.90
22966;DHT22;11649;48.090;9.754;2023-01-01T09:29:31;13.10;99.90
22966;DHT22;11649;48.090;9.754;2023-01-01T09:31:58;13.10;99.90
22966;DHT22;11649;48.090;9.754;2023-01-01T09:34:25;13.50;99.90
22966;DHT22;11649;48.090;9.754;2023-01-01T09:36:52;13.30;99.90
22966;DHT22;11649;48.090;9.754;2023-01-01T09:39:18;13.20;99.90
22966;DHT22;11649;48.090;9.754;2023-01-01T09:46:58;12.70;99.90
22966;DHT22;11649;48.090;9.754;2023-01-01T09:49:38;12.50;99.90
22966;DHT22;11649;48.090;9.754;2023-01-01T09:52:08;12.50;99.90
22966;DHT22;11649;48.090;9.754;2023-01-01T09:57:07;12.40;99.90
22966;DHT22;11649;48.090;9.754;2023-01-01T09:59:45;12.30;99.90
22966;DHT22;11649;48.090;9.754;2023-01-01T10:10:44;12.70;99.90
22966;DHT22;11649;48.090;9.754;2023-01-01T10:13:26;12.70;99.90
22966;DHT22;11649;48.090;9.754;2023-01-01T10:18:36;12.50;99.90
22966;DHT22;11649;48.090;9.754;2023-01-01T10:21:18;12.50;99.90
22966;DHT22;11649;48.090;9.754;2023-01-01T10:26:19;12.60;99.90
22966;DHT22;11649;48.090;9.754;2023-01-01T10:31:38;12.60;99.90
22966;DHT22;11649;48.090;9.754;2023-01-01T10:36:43;12.90;99.90
22966;DHT22;11649;48.090;9.754;2023-01-01T10:39:19;13.20;99.90
22966;DHT22;11649;48.090;9.754;2023-01-01T10:41:46;13.30;99.90
22966;DHT22;11649;48.090;9.754;2023-01-01T10:44:29;13.40;99.90
22966;DHT22;11649;48.090;9.754;2023-01-01T10:46:58;13.50;99.90
22966;DHT22;11649;48.090;9.754;2023-01-01T10:49:26;13.40;99.90
22966;DHT22;11649;48.090;9.754;2023-01-01T10:51:53;13.50;99.90
22966;DHT22;11649;48.090;9.754;2023-01-01T10:54:36;13.60;99.90
22966;DHT22;11649;48.090;9.754;2023-01-01T10:57:15;13.70;99.90
22966;DHT22;11649;48.090;9.754;2023-01-01T10:59:44;14.00;99.90
22966;DHT22;11649;48.090;9.754;2023-01-01T11:04:47;14.70;99.70
22966;DHT22;11649;48.090;9.754;2023-01-01T11:09:48;15.40;93.40
22966;DHT22;11649;48.090;9.754;2023-01-01T11:12:33;15.40;92.90
22966;DHT22;11649;48.090;9.754;2023-01-01T11:15:36;15.30;93.50
22966;DHT22;11649;48.090;9.754;2023-01-01T11:18:30;15.10;92.40
22966;DHT22;11649;48.090;9.754;2023-01-01T11:21:03;14.90;94.10
22966;DHT22;11649;48.090;9.754;2023-01-01T11:23:36;14.70;93.30
22966;DHT22;11649;48.090;9.754;2023-01-01T11:28:40;15.00;91.70
22966;DHT22;11649;48.090;9.754;2023-01-01T11:31:16;15.00;94.30
22966;DHT22;11649;48.090;9.754;2023-01-01T11:33:51;14.80;92.70
22966;DHT22;11649;48.090;9.754;2023-01-01T11:36:23;14.80;93.70
22966;DHT22;11649;48.090;9.754;2023-01-01T11:41:44;14.90;93.40
22966;DHT22;11649;48.090;9.754;2023-01-01T11:44:21;14.90;92.50
22966;DHT22;11649;48.090;9.754;2023-01-01T11:46:50;15.00;92.40
22966;DHT22;11649;48.090;9.754;2023-01-01T11:49:22;14.80;94.40
22966;DHT22;11649;48.090;9.754;2023-01-01T11:51:51;14.80;94.30
22966;DHT22;11649;48.090;9.754;2023-01-01T11:57:08;14.90;94.90
22966;DHT22;11649;48.090;9.754;2023-01-01T11:59:45;15.00;94.00
22966;DHT22;11649;48.090;9.754;2023-01-01T12:02:17;15.20;92.40
22966;DHT22;11649;48.090;9.754;2023-01-01T12:04:55;15.40;92.10
22966;DHT22;11649;48.090;9.754;2023-01-01T12:07:27;15.50;91.10
22966;DHT22;11649;48.090;9.754;2023-01-01T12:09:59;15.50;91.60
22966;DHT22;11649;48.090;9.754;2023-01-01T12:12:56;15.50;91.00
22966;DHT22;11649;48.090;9.754;2023-01-01T12:15:30;15.50;91.70
22966;DHT22;11649;48.090;9.754;2023-01-01T12:20:43;15.30;92.30
22966;DHT22;11649;48.090;9.754;2023-01-01T12:23:11;15.20;91.20
22966;DHT22;11649;48.090;9.754;2023-01-01T12:25:41;15.20;93.40
22966;DHT22;11649;48.090;9.754;2023-01-01T12:34:19;15.50;92.70
22966;DHT22;11649;48.090;9.754;2023-01-01T12:37:07;15.80;91.60
22966;DHT22;11649;48.090;9.754;2023-01-01T12:40:24;15.90;91.50
22966;DHT22;11649;48.090;9.754;2023-01-01T12:43:03;15.80;92.10
22966;DHT22;11649;48.090;9.754;2023-01-01T12:59:27;16.00;90.20
22966;DHT22;11649;48.090;9.754;2023-01-01T13:01:56;16.00;87.70
22966;DHT22;11649;48.090;9.754;2023-01-01T13:04:24;16.00;89.70
22966;DHT22;11649;48.090;9.754;2023-01-01T13:07:02;15.80;88.50
22966;DHT22;11649;48.090;9.754;2023-01-01T13:09:33;16.20;90.10
22966;DHT22;11649;48.090;9.754;2023-01-01T13:12:05;16.40;86.60
22966;DHT22;11649;48.090;9.754;2023-01-01T13:14:39;16.60;86.10
22966;DHT22;11649;48.090;9.754;2023-01-01T13:17:32;16.60;85.90
22966;DHT22;11649;48.090;9.754;2023-01-01T13:20:15;16.40;89.50
22966;DHT22;11649;48.090;9.754;2023-01-01T13:22:46;16.20;89.50
22966;DHT22;11649;48.090;9.754;2023-01-01T13:33:24;16.50;88.30
22966;DHT22;11649;48.090;9.754;2023-01-01T13:38:45;17.30;81.60
22966;DHT22;11649;48.090;9.754;2023-01-01T13:41:31;17.10;81.80
22966;DHT22;11649;48.090;9.754;2023-01-01T13:52:02;17.80;74.60
22966;DHT22;11649;48.090;9.754;2023-01-01T14:00:26;19.20;69.50
22966;DHT22;11649;48.090;9.754;2023-01-01T14:03:01;20.20;66.10
22966;DHT22;11649;48.090;9.754;2023-01-01T14:05:34;20.60;65.90
22966;DHT22;11649;48.090;9.754;2023-01-01T14:08:03;21.60;60.40
22966;DHT22;11649;48.090;9.754;2023-01-01T14:10:38;21.90;59.10
22966;DHT22;11649;48.090;9.754;2023-01-01T14:15:34;23.30;55.60
22966;DHT22;11649;48.090;9.754;2023-01-01T14:18:05;24.00;55.20
22966;DHT22;11649;48.090;9.754;2023-01-01T14:20:45;24.50;52.40
22966;DHT22;11649;48.090;9.754;2023-01-01T14:23:22;24.80;54.00
22966;DHT22;11649;48.090;9.754;2023-01-01T14:25:52;25.00;53.20
22966;DHT22;11649;48.090;9.754;2023-01-01T14:28:30;25.00;53.30
22966;DHT22;11649;48.090;9.754;2023-01-01T14:31:00;24.10;54.80
22966;DHT22;11649;48.090;9.754;2023-01-01T14:33:36;23.40;54.90
22966;DHT22;11649;48.090;9.754;2023-01-01T14:36:05;22.10;58.50
22966;DHT22;11649;48.090;9.754;2023-01-01T14:38:44;20.70;62.20
22966;DHT22;11649;48.090;9.754;2023-01-01T14:43:48;18.40;71.90
22966;DHT22;11649;48.090;9.754;2023-01-01T14:46:21;17.60;78.00
22966;DHT22;11649;48.090;9.754;2023-01-01T14:48:51;17.20;82.80
22966;DHT22;11649;48.090;9.754;2023-01-01T14:51:22;16.40;86.70
22966;DHT22;11649;48.090;9.754;2023-01-01T14:53:55;16.00;88.90
22966;DHT22;11649;48.090;9.754;2023-01-01T14:56:29;15.70;90.40
22966;DHT22;11649;48.090;9.754;2023-01-01T15:01:30;15.30;92.40
22966;DHT22;11649;48.090;9.754;2023-01-01T15:04:03;15.00;93.70
22966;DHT22;11649;48.090;9.754;2023-01-01T15:06:30;14.80;95.00
22966;DHT22;11649;48.090;9.754;2023-01-01T15:08:58;14.40;95.90
22966;DHT22;11649;48.090;9.754;2023-01-01T15:11:25;14.30;97.00
22966;DHT22;11649;48.090;9.754;2023-01-01T15:13:57;14.00;98.10
22966;DHT22;11649;48.090;9.754;2023-01-01T15:16:25;13.90;99.20
22966;DHT22;11649;48.090;9.754;2023-01-01T15:18:52;13.70;99.90
22966;DHT22;11649;48.090;9.754;2023-01-01T15:21:34;13.40;99.90
22966;DHT22;11649;48.090;9.754;2023-01-01T15:24:16;13.20;99.90
22966;DHT22;11649;48.090;9.754;2023-01-01T15:26:52;13.10;99.90
22966;DHT22;11649;48.090;9.754;2023-01-01T15:29:37;13.00;99.90
22966;DHT22;11649;48.090;9.754;2023-01-01T15:32:10;12.90;99.90
22966;DHT22;11649;48.090;9.754;2023-01-01T15:34:48;12.80;99.90
22966;DHT22;11649;48.090;9.754;2023-01-01T15:37:21;12.70;99.90
22966;DHT22;11649;48.090;9.754;2023-01-01T15:39:51;12.50;99.90
22966;DHT22;11649;48.090;9.754;2023-01-01T15:42:33;12.40;99.90
22966;DHT22;11649;48.090;9.754;2023-01-01T15:45:30;12.30;99.90
22966;DHT22;11649;48.090;9.754;2023-01-01T15:48:17;12.10;99.90
22966;DHT22;11649;48.090;9.754;2023-01-01T15:53:24;11.70;99.90
22966;DHT22;11649;48.090;9.754;2023-01-01T15:56:02;11.50;99.90
22966;DHT22;11649;48.090;9.754;2023-01-01T16:01:24;11.20;99.90
22966;DHT22;11649;48.090;9.754;2023-01-01T16:04:13;11.10;99.90
22966;DHT22;11649;48.090;9.754;2023-01-01T16:06:42;11.00;99.90
22966;DHT22;11649;48.090;9.754;2023-01-01T16:09:12;10.90;99.90
22966;DHT22;11649;48.090;9.754;2023-01-01T16:11:39;11.00;99.90
22966;DHT22;11649;48.090;9.754;2023-01-01T16:14:06;11.20;99.90
22966;DHT22;11649;48.090;9.754;2023-01-01T16:16:33;10.40;99.90
22966;DHT22;11649;48.090;9.754;2023-01-01T16:19:01;10.50;99.90
22966;DHT22;11649;48.090;9.754;2023-01-01T16:21:30;10.40;99.90
22966;DHT22;11649;48.090;9.754;2023-01-01T16:23:58;10.50;99.90
22966;DHT22;11649;48.090;9.754;2023-01-01T16:26:25;10.50;99.90
22966;DHT22;11649;48.090;9.754;2023-01-01T16:28:52;11.80;99.90
22966;DHT22;11649;48.090;9.754;2023-01-01T16:31:27;10.30;99.90
22966;DHT22;11649;48.090;9.754;2023-01-01T16:33:56;10.10;99.90
22966;DHT22;11649;48.090;9.754;2023-01-01T16:36:24;10.00;99.90
22966;DHT22;11649;48.090;9.754;2023-01-01T16:38:53;9.90;99.90
22966;DHT22;11649;48.090;9.754;2023-01-01T16:41:20;9.70;99.90
22966;DHT22;11649;48.090;9.754;2023-01-01T16:43:47;9.60;99.90
22966;DHT22;11649;48.090;9.754;2023-01-01T16:46:14;9.60;99.90
22966;DHT22;11649;48.090;9.754;2023-01-01T16:48:42;9.60;99.90
22966;DHT22;11649;48.090;9.754;2023-01-01T16:51:21;9.50;99.90
22966;DHT22;11649;48.090;9.754;2023-01-01T16:53:48;9.20;99.90
22966;DHT22;11649;48.090;9.754;2023-01-01T16:56:17;9.20;99.90
22966;DHT22;11649;48.090;9.754;2023-01-01T16:58:44;9.10;99.90
22966;DHT22;11649;48.090;9.754;2023-01-01T17:01:19;9.10;99.90
22966;DHT22;11649;48.090;9.754;2023-01-01T17:03:46;9.10;99.90
22966;DHT22;11649;48.090;9.754;2023-01-01T17:06:13;8.80;99.90
22966;DHT22;11649;48.090;9.754;2023-01-01T17:08:40;8.70;99.90
22966;DHT22;11649;48.090;9.754;2023-01-01T17:11:09;8.80;99.90
22966;DHT22;11649;48.090;9.754;2023-01-01T17:13:40;8.80;99.90
22966;DHT22;11649;48.090;9.754;2023-01-01T17:16:07;8.40;99.90
22966;DHT22;11649;48.090;9.754;2023-01-01T17:18:34;8.50;99.90
22966;DHT22;11649;48.090;9.754;2023-01-01T17:21:21;8.60;99.90
22966;DHT22;11649;48.090;9.754;2023-01-01T17:23:48;8.20;99.90
22966;DHT22;11649;48.090;9.754;2023-01-01T17:26:17;8.10;99.90
22966;DHT22;11649;48.090;9.754;2023-01-01T17:28:46;8.30;99.90
22966;DHT22;11649;48.090;9.754;2023-01-01T17:31:15;8.30;99.90
22966;DHT22;11649;48.090;9.754;2023-01-01T17:33:42;8.30;99.90
22966;DHT22;11649;48.090;9.754;2023-01-01T17:36:09;8.40;99.90
22966;DHT22;11649;48.090;9.754;2023-01-01T17:38:37;8.30;99.90
22966;DHT22;11649;48.090;9.754;2023-01-01T17:41:09;8.20;99.90
22966;DHT22;11649;48.090;9.754;2023-01-01T17:43:38;7.90;99.90
22966;DHT22;11649;48.090;9.754;2023-01-01T17:46:10;7.70;99.90
22966;DHT22;11649;48.090;9.754;2023-01-01T17:48:37;7.70;99.90
22966;DHT22;11649;48.090;9.754;2023-01-01T17:51:05;7.80;99.90
22966;DHT22;11649;48.090;9.754;2023-01-01T17:53:32;7.80;99.90
22966;DHT22;11649;48.090;9.754;2023-01-01T17:55:58;7.80;99.90
22966;DHT22;11649;48.090;9.754;2023-01-01T17:58:25;7.90;99.90
22966;DHT22;11649;48.090;9.754;2023-01-01T18:03:38;7.90;99.90
22966;DHT22;11649;48.090;9.754;2023-01-01T18:06:06;7.80;99.90
22966;DHT22;11649;48.090;9.754;2023-01-01T18:08:33;7.80;99.90
22966;DHT22;11649;48.090;9.754;2023-01-01T18:11:00;7.80;99.90
22966;DHT22;11649;48.090;9.754;2023-01-01T18:13:27;7.70;99.90
22966;DHT22;11649;48.090;9.754;2023-01-01T18:16:02;7.60;99.90
22966;DHT22;11649;48.090;9.754;2023-01-01T18:18:29;7.50;99.90